Time;durP1;ratioP1;P1;durP2;ratioP2;P2;SDS_P1;SDS_P2;PMS_P1;PMS_P2;Temp;Humidity;BMP_temperature;BMP_pressure;BME280_temperature;BME280_humidity;BME280_pressure;Samples;Min_cycle;Max_cycle;Signal;HPM_P1;HPM_P2
2021/05/25 00:00:36;;;;;;;9.40;5.68;;;9.20;99.90;;;;;;4855881;29;20395;-85
2021/05/25 00:03:08;;;;;;;10.40;3.53;;;9.20;99.90;;;;;;4854806;29;20046;-85
2021/05/25 00:05:41;;;;;;;9.25;4.38;;;9.10;99.90;;;;;;4837992;29;20058;-86
2021/05/25 00:08:12;;;;;;;10.25;4.65;;;10.00;99.90;;;;;;4851519;29;20068;-85
2021/05/25 00:10:54;;;;;;;8.75;4.22;;;9.10;99.90;;;;;;4919539;27;6024721;-87
2021/05/25 00:13:23;;;;;;;7.97;4.07;;;9.10;99.90;;;;;;5095285;28;20047;-86
2021/05/25 00:15:54;;;;;;;8.85;3.55;;;9.00;99.90;;;;;;5078075;28;20476;-86
2021/05/25 00:18:28;;;;;;;7.53;3.33;;;9.00;99.90;;;;;;5069222;28;20058;-87
2021/05/25 00:21:04;;;;;;;8.15;3.97;;;9.00;99.90;;;;;;5061014;28;20052;-86
2021/05/25 00:23:36;;;;;;;4.40;3.70;;;8.90;99.90;;;;;;5114338;28;20050;-88
2021/05/25 00:26:06;;;;;;;5.30;3.30;;;8.80;99.90;;;;;;5102071;28;20051;-86
2021/05/25 00:28:38;;;;;;;7.68;3.10;;;8.80;99.90;;;;;;5079539;28;20047;-87
2021/05/25 00:31:07;;;;;;;5.97;2.97;;;8.80;99.90;;;;;;5103120;28;20059;-86
2021/05/25 00:33:37;;;;;;;6.85;3.35;;;8.80;99.90;;;;;;5097287;28;20036;-85
2021/05/25 00:36:09;;;;;;;4.78;3.25;;;8.70;99.90;;;;;;5062131;28;20071;-85
2021/05/25 00:38:37;;;;;;;8.23;3.13;;;8.70;99.90;;;;;;5097573;28;20082;-86
2021/05/25 00:41:11;;;;;;;6.13;2.97;;;8.70;99.90;;;;;;5065508;28;20491;-87
2021/05/25 00:43:43;;;;;;;8.68;3.53;;;8.60;99.90;;;;;;5061554;28;20044;-86
2021/05/25 00:46:12;;;;;;;9.35;2.75;;;8.60;99.90;;;;;;5079857;28;20059;-87
2021/05/25 00:48:41;;;;;;;8.35;3.42;;;8.60;99.90;;;;;;5087913;28;20059;-87
2021/05/25 00:51:13;;;;;;;4.22;2.85;;;8.70;99.90;;;;;;5048326;28;20503;-87
2021/05/25 00:53:44;;;;;;;7.45;2.97;;;8.50;99.90;;;;;;5070578;28;20139;-86
2021/05/25 00:56:14;;;;;;;4.63;3.03;;;9.40;99.90;;;;;;5051407;28;20119;-85
2021/05/25 00:58:46;;;;;;;5.47;2.60;;;8.90;99.90;;;;;;5079655;28;20060;-87
2021/05/25 01:01:17;;;;;;;11.65;4.78;;;8.50;99.90;;;;;;5060490;28;20049;-86
2021/05/25 01:03:45;;;;;;;4.93;2.92;;;8.40;99.90;;;;;;5064920;28;20087;-85
2021/05/25 01:06:15;;;;;;;8.02;2.97;;;9.10;99.90;;;;;;5060855;28;20044;-86
2021/05/25 01:08:43;;;;;;;4.28;2.75;;;8.40;99.90;;;;;;5070608;28;20241;-86
2021/05/25 01:11:13;;;;;;;6.03;2.63;;;8.40;99.90;;;;;;5066519;28;20048;-85
2021/05/25 01:13:48;;;;;;;4.05;2.60;;;8.30;99.90;;;;;;5089492;28;20048;-86
2021/05/25 01:16:17;;;;;;;;;;;8.30;99.90;;;;;;5057828;28;20048;-86
2021/05/25 01:18:48;;;;;;;4.65;2.80;;;8.30;99.90;;;;;;5040206;28;19920;-86
2021/05/25 01:21:16;;;;;;;8.88;3.85;;;8.30;99.90;;;;;;5063371;28;20041;-86
2021/05/25 01:23:45;;;;;;;5.05;2.90;;;8.20;99.90;;;;;;5053430;28;20064;-86
2021/05/25 01:26:16;;;;;;;4.30;2.85;;;8.20;99.90;;;;;;5060063;28;20484;-87
2021/05/25 01:28:49;;;;;;;6.45;3.28;;;8.20;99.90;;;;;;5049995;28;20053;-86
2021/05/25 01:31:17;;;;;;;3.05;2.72;;;8.10;99.90;;;;;;5048768;28;20106;-86
2021/05/25 01:33:45;;;;;;;9.75;3.17;;;8.10;99.90;;;;;;5036440;28;20529;-86
2021/05/25 01:36:17;;;;;;;4.82;2.95;;;8.30;99.90;;;;;;5064089;28;20040;-86
2021/05/25 01:38:53;;;;;;;8.82;2.97;;;8.60;99.90;;;;;;5046092;28;20044;-87
2021/05/25 01:41:22;;;;;;;6.75;2.95;;;7.80;99.90;;;;;;5037361;28;20044;-87
2021/05/25 01:43:59;;;;;;;5.90;2.55;;;9.20;99.90;;;;;;5069180;28;20059;-86
2021/05/25 01:46:31;;;;;;;7.72;2.63;;;7.80;99.90;;;;;;5025813;28;20049;-87
2021/05/25 01:49:01;;;;;;;6.82;2.85;;;7.80;99.90;;;;;;5053103;28;20048;-86
2021/05/25 01:51:32;;;;;;;3.10;2.60;;;8.20;99.90;;;;;;5083232;28;20380;-87
2021/05/25 01:54:00;;;;;;;11.23;3.75;;;7.70;99.90;;;;;;5061462;28;20408;-87
2021/05/25 01:56:28;;;;;;;3.80;2.38;;;7.70;99.90;;;;;;5053374;28;20045;-86
2021/05/25 01:58:59;;;;;;;4.37;2.80;;;7.70;99.90;;;;;;5081600;28;20048;-87
2021/05/25 02:01:28;;;;;;;6.22;2.63;;;7.70;99.90;;;;;;5072998;28;20304;-86
2021/05/25 02:03:56;;;;;;;4.72;2.95;;;7.60;99.90;;;;;;5060550;28;20059;-85
2021/05/25 02:06:25;;;;;;;5.53;2.78;;;7.60;99.90;;;;;;5073967;28;20052;-85
2021/05/25 02:08:55;;;;;;;5.07;3.15;;;8.60;99.90;;;;;;5045515;28;20052;-86
2021/05/25 02:11:23;;;;;;;4.78;3.00;;;7.50;99.90;;;;;;5033650;28;20047;-87
2021/05/25 02:13:52;;;;;;;23.45;3.20;;;8.80;99.90;;;;;;5032211;28;20050;-86
2021/05/25 02:16:23;;;;;;;4.03;2.70;;;7.50;99.90;;;;;;5046927;28;20049;-87
2021/05/25 02:18:53;;;;;;;5.28;3.05;;;7.50;99.90;;;;;;5062914;28;20053;-87
2021/05/25 02:21:22;;;;;;;8.68;3.10;;;7.50;99.90;;;;;;5063210;28;20067;-86
2021/05/25 02:23:50;;;;;;;13.13;3.90;;;7.50;99.90;;;;;;5049105;28;20052;-87
2021/05/25 02:26:18;;;;;;;6.30;3.97;;;7.40;99.90;;;;;;5046982;28;20040;-86
2021/05/25 02:28:47;;;;;;;4.65;2.53;;;7.40;99.90;;;;;;5038264;28;20064;-86
2021/05/25 02:31:15;;;;;;;4.90;2.97;;;7.40;99.90;;;;;;5039174;28;20068;-86
2021/05/25 02:33:44;;;;;;;3.85;3.22;;;8.20;99.90;;;;;;5046365;28;20044;-86
2021/05/25 02:36:12;;;;;;;10.18;2.92;;;7.40;99.90;;;;;;5059925;28;20056;-87
2021/05/25 02:38:40;;;;;;;3.83;2.92;;;8.30;99.90;;;;;;5060038;28;20052;-84
2021/05/25 02:41:08;;;;;;;5.20;3.50;;;7.40;99.90;;;;;;5025837;28;20067;-86
2021/05/25 02:43:38;;;;;;;12.65;2.88;;;8.20;99.90;;;;;;5067191;28;20049;-87
2021/05/25 02:46:09;;;;;;;10.70;3.65;;;7.40;99.90;;;;;;5030737;28;20063;-85
2021/05/25 02:48:37;;;;;;;6.03;4.13;;;7.30;99.90;;;;;;5061649;28;20049;-85
2021/05/25 02:51:05;;;;;;;9.13;3.35;;;7.80;99.90;;;;;;5057577;28;20068;-85
2021/05/25 02:53:35;;;;;;;6.78;2.95;;;7.30;99.90;;;;;;5059044;28;20053;-87
2021/05/25 02:56:04;;;;;;;5.55;2.70;;;7.30;99.90;;;;;;5051150;28;20052;-85
2021/05/25 02:58:33;;;;;;;11.93;3.17;;;7.30;99.90;;;;;;5042752;28;20041;-86
2021/05/25 03:01:02;;;;;;;6.47;3.35;;;6.10;99.90;;;;;;5038585;28;20051;-87
2021/05/25 03:03:31;;;;;;;3.63;2.47;;;7.30;99.90;;;;;;5042810;28;20215;-86
2021/05/25 03:05:59;;;;;;;13.00;3.55;;;7.40;99.90;;;;;;5036432;28;20052;-86
2021/05/25 03:08:28;;;;;;;4.30;2.90;;;7.30;99.90;;;;;;5053921;28;20049;-86
2021/05/25 03:10:56;;;;;;;9.30;3.33;;;7.60;99.90;;;;;;5029923;28;20471;-86
2021/05/25 03:13:25;;;;;;;9.75;5.30;;;7.30;99.90;;;;;;5029454;28;20048;-87
2021/05/25 03:15:53;;;;;;;8.75;4.28;;;7.30;99.90;;;;;;5068189;28;20056;-87
2021/05/25 03:18:22;;;;;;;5.95;2.65;;;7.40;99.90;;;;;;5049616;28;20045;-86
2021/05/25 03:20:50;;;;;;;7.47;2.30;;;8.60;99.90;;;;;;5012470;28;20496;-86
2021/05/25 03:23:19;;;;;;;8.10;3.00;;;7.40;99.90;;;;;;5029749;28;20052;-86
2021/05/25 03:25:52;;;;;;;7.72;2.72;;;8.10;99.90;;;;;;5061357;28;20311;-87
2021/05/25 03:28:20;;;;;;;5.43;3.13;;;7.90;99.90;;;;;;5072905;28;20045;-85
2021/05/25 03:30:56;;;;;;;4.55;2.45;;;8.00;99.90;;;;;;5055003;28;20049;-87
2021/05/25 03:33:25;;;;;;;11.68;4.22;;;7.50;99.90;;;;;;5044270;28;20361;-87
2021/05/25 03:35:53;;;;;;;16.58;4.13;;;7.40;99.90;;;;;;5054122;23;20058;-85
2021/05/25 03:38:22;;;;;;;8.15;3.30;;;7.50;99.90;;;;;;5035869;28;20050;-86
2021/05/25 03:40:52;;;;;;;4.85;2.60;;;7.40;99.90;;;;;;5016889;28;20042;-87
2021/05/25 03:43:21;;;;;;;4.15;2.65;;;7.50;99.90;;;;;;5033041;28;20692;-86
2021/05/25 03:45:49;;;;;;;16.13;4.30;;;7.50;99.90;;;;;;5000688;28;20464;-86
2021/05/25 03:48:18;;;;;;;7.47;2.72;;;8.50;99.90;;;;;;5025505;28;20053;-84
2021/05/25 03:50:46;;;;;;;9.57;3.45;;;7.40;99.90;;;;;;5015830;28;20056;-86
2021/05/25 03:53:15;;;;;;;6.25;2.67;;;8.40;99.90;;;;;;5013290;28;20057;-85
2021/05/25 04:01:06;;;;;;;18.75;4.60;;;7.50;99.90;;;;;;5017113;28;20053;-86
2021/05/25 04:03:35;;;;;;;21.13;3.72;;;8.30;99.90;;;;;;5035713;28;20057;-85
2021/05/25 04:06:02;;;;;;;15.13;4.53;;;7.60;99.90;;;;;;5020674;28;20042;-86
2021/05/25 04:08:33;;;;;;;7.45;3.15;;;7.60;99.90;;;;;;5021799;28;20049;-86
2021/05/25 04:11:01;;;;;;;14.40;3.15;;;7.70;99.90;;;;;;5015764;28;20048;-86
2021/05/25 04:13:29;;;;;;;8.05;2.65;;;7.70;99.90;;;;;;5021170;28;20042;-86
2021/05/25 04:15:58;;;;;;;12.65;4.25;;;7.70;99.90;;;;;;5019891;28;20049;-87
2021/05/25 04:18:29;;;;;;;22.98;3.15;;;8.20;99.90;;;;;;5032483;28;20041;-87
2021/05/25 04:20:56;;;;;;;9.90;2.78;;;7.80;99.90;;;;;;5036488;28;20054;-86
2021/05/25 04:23:25;;;;;;;13.43;3.70;;;7.90;99.90;;;;;;5039691;28;20045;-86
2021/05/25 04:25:52;;;;;;;4.88;2.58;;;7.90;99.90;;;;;;5037346;28;20058;-86
2021/05/25 04:28:21;;;;;;;7.38;2.90;;;7.90;99.90;;;;;;5020830;28;20054;-87
2021/05/25 04:30:50;;;;;;;7.40;4.00;;;8.00;99.90;;;;;;5038503;28;20060;-86
2021/05/25 04:33:18;;;;;;;8.52;3.50;;;8.10;99.90;;;;;;5039732;28;20061;-87
2021/05/25 04:35:46;;;;;;;11.15;4.97;;;8.00;99.90;;;;;;5007077;28;20061;-85
2021/05/25 04:38:15;;;;;;;11.00;2.78;;;8.10;99.90;;;;;;5013223;28;20053;-86
2021/05/25 04:40:46;;;;;;;9.07;2.80;;;8.20;99.90;;;;;;5009591;28;20042;-87
2021/05/25 04:43:16;;;;;;;7.88;2.95;;;8.10;99.90;;;;;;5020903;28;20061;-86
2021/05/25 04:45:44;;;;;;;8.50;2.83;;;9.40;99.90;;;;;;5016342;28;20049;-86
2021/05/25 04:48:13;;;;;;;6.68;3.72;;;8.30;99.90;;;;;;4999675;28;20069;-86
2021/05/25 04:50:42;;;;;;;6.60;2.72;;;9.40;99.90;;;;;;5035524;28;20045;-86
2021/05/25 04:53:10;;;;;;;7.25;2.90;;;8.20;99.90;;;;;;4989290;28;20050;-87
2021/05/25 04:55:40;;;;;;;5.18;2.20;;;8.30;99.90;;;;;;5001384;28;20057;-86
2021/05/25 04:58:11;;;;;;;11.80;2.83;;;8.30;99.90;;;;;;4994595;28;20054;-87
2021/05/25 05:00:39;;;;;;;7.07;2.90;;;8.30;99.90;;;;;;5015863;28;20046;-86
2021/05/25 05:03:07;;;;;;;5.20;3.03;;;8.40;99.90;;;;;;4996424;28;20053;-86
2021/05/25 05:05:35;;;;;;;15.60;4.93;;;8.40;99.90;;;;;;5032935;28;20058;-85
2021/05/25 05:08:07;;;;;;;11.45;2.83;;;8.40;99.90;;;;;;5015271;28;20054;-86
2021/05/25 05:10:36;;;;;;;9.30;3.38;;;8.40;99.90;;;;;;5002905;28;20145;-87
2021/05/25 05:13:12;;;;;;;9.23;3.17;;;8.50;99.90;;;;;;5005014;28;20050;-86
2021/05/25 05:15:40;;;;;;;8.30;2.40;;;8.50;99.90;;;;;;5019040;28;20709;-86
2021/05/25 05:18:12;;;;;;;7.00;2.35;;;8.90;99.90;;;;;;5000907;28;20049;-86
2021/05/25 05:20:52;;;;;;;7.93;2.17;;;8.60;99.90;;;;;;5000719;28;20053;-87
2021/05/25 05:23:22;;;;;;;11.35;2.95;;;8.60;99.90;;;;;;5001668;28;20080;-87
2021/05/25 05:25:50;;;;;;;10.23;3.40;;;9.30;99.90;;;;;;4962926;28;20056;-86
2021/05/25 05:28:20;;;;;;;6.85;3.08;;;8.70;99.90;;;;;;5016394;28;20070;-86
2021/05/25 05:30:48;;;;;;;9.77;3.28;;;9.00;99.90;;;;;;4993662;28;20054;-84
2021/05/25 05:33:16;;;;;;;9.95;3.15;;;9.20;99.90;;;;;;5003404;28;20057;-85
2021/05/25 05:35:54;;;;;;;6.18;2.53;;;8.90;99.90;;;;;;5005495;28;20049;-85
2021/05/25 05:38:24;;;;;;;10.68;2.28;;;8.90;99.90;;;;;;5003887;28;20194;-86
2021/05/25 05:40:55;;;;;;;5.45;2.03;;;8.90;99.90;;;;;;5022924;28;20064;-87
2021/05/25 05:43:27;;;;;;;8.30;2.72;;;9.40;99.90;;;;;;5003753;28;20050;-86
2021/05/25 05:45:56;;;;;;;7.43;3.08;;;8.90;99.90;;;;;;5005147;28;20060;-86
2021/05/25 05:48:27;;;;;;;4.82;2.35;;;9.40;99.90;;;;;;5001211;28;20493;-87
2021/05/25 05:50:56;;;;;;;8.52;2.50;;;9.00;99.90;;;;;;5001776;28;20057;-87
2021/05/25 05:53:25;;;;;;;6.72;2.83;;;9.00;99.90;;;;;;5003097;28;20050;-86
2021/05/25 05:55:55;;;;;;;12.75;3.22;;;9.00;99.90;;;;;;5012716;28;20053;-87
2021/05/25 05:58:24;;;;;;;7.93;2.58;;;9.00;99.90;;;;;;5019063;28;20077;-86
2021/05/25 06:00:53;;;;;;;12.70;2.38;;;8.90;99.90;;;;;;5012695;28;20049;-86
2021/05/25 06:03:30;;;;;;;8.70;2.63;;;9.10;99.90;;;;;;4981176;28;20053;-86
2021/05/25 06:05:58;;;;;;;14.70;5.35;;;9.50;99.90;;;;;;5016338;28;20076;-87
2021/05/25 06:08:27;;;;;;;15.52;2.72;;;8.90;99.90;;;;;;5016650;28;20048;-85
2021/05/25 06:10:56;;;;;;;12.68;3.95;;;9.00;99.90;;;;;;5013904;28;20413;-87
2021/05/25 06:13:27;;;;;;;8.83;3.30;;;9.00;99.90;;;;;;5015957;28;20046;-87
2021/05/25 06:16:20;;;;;;;14.82;3.22;;;9.30;99.90;;;;;;5014766;28;20053;-86
2021/05/25 06:18:50;;;;;;;6.72;2.80;;;9.50;99.90;;;;;;5002838;28;20054;-86
2021/05/25 06:21:20;;;;;;;11.45;5.35;;;9.40;99.90;;;;;;5018991;28;20053;-86
2021/05/25 06:23:54;;;;;;;11.20;2.58;;;9.40;99.90;;;;;;5009305;28;20065;-85
2021/05/25 06:26:23;;;;;;;4.82;1.90;;;9.50;99.90;;;;;;5008481;28;20394;-85
2021/05/25 06:28:51;;;;;;;7.05;2.65;;;10.00;99.90;;;;;;5011741;28;20073;-85
2021/05/25 06:31:20;;;;;;;5.70;2.55;;;9.90;99.90;;;;;;5011306;28;20081;-86
2021/05/25 06:33:48;;;;;;;7.78;2.55;;;9.80;99.90;;;;;;5012450;28;20054;-86
2021/05/25 06:36:21;;;;;;;5.22;2.70;;;9.60;99.90;;;;;;5009360;28;20073;-86
2021/05/25 06:38:49;;;;;;;5.97;2.58;;;9.70;99.90;;;;;;5018379;28;20409;-87
2021/05/25 06:41:22;;;;;;;10.27;2.70;;;9.70;99.90;;;;;;5019422;28;20056;-87
2021/05/25 06:43:53;;;;;;;7.53;2.90;;;9.80;99.90;;;;;;5013901;28;20049;-87
2021/05/25 06:46:25;;;;;;;9.77;2.80;;;9.80;99.90;;;;;;5010878;28;20048;-86
2021/05/25 06:49:08;;;;;;;9.35;3.63;;;9.80;99.90;;;;;;5012596;28;20046;-87
2021/05/25 06:51:38;;;;;;;;;;;9.90;99.90;;;;;;4998927;28;20069;-89
2021/05/25 06:54:13;;;;;;;9.18;3.65;;;9.90;99.90;;;;;;4998308;28;19921;-88
2021/05/25 06:56:44;;;;;;;7.15;3.25;;;10.00;99.90;;;;;;5010138;28;20034;-87
2021/05/25 06:59:14;;;;;;;7.65;3.80;;;10.00;99.90;;;;;;4999017;28;20050;-87
2021/05/25 07:01:43;;;;;;;6.15;2.83;;;9.90;99.90;;;;;;5027035;28;20050;-88
2021/05/25 07:04:11;;;;;;;5.80;2.45;;;10.10;99.90;;;;;;5010490;28;20428;-85
2021/05/25 07:06:42;;;;;;;4.78;2.67;;;10.10;99.90;;;;;;5008293;28;20058;-90
2021/05/25 07:09:12;;;;;;;14.75;3.17;;;10.20;99.90;;;;;;5006521;28;20061;-91
2021/05/25 07:12:08;;;;;;;5.10;2.70;;;10.40;99.90;;;;;;4986809;28;20713;-91
2021/05/25 07:14:42;;;;;;;6.18;2.55;;;10.30;99.90;;;;;;5027289;28;20056;-90
2021/05/25 07:17:26;;;;;;;8.82;2.47;;;10.80;99.90;;;;;;5025787;28;20378;-91
2021/05/25 07:20:34;;;;;;;5.97;2.67;;;10.50;99.90;;;;;;5003413;28;20045;-90
2021/05/25 07:23:02;;;;;;;7.45;4.38;;;12.00;99.90;;;;;;4993924;28;20061;-91
2021/05/25 07:25:45;;;;;;;6.05;2.60;;;10.60;99.90;;;;;;4993551;28;20378;-91
2021/05/25 07:28:15;;;;;;;14.15;2.95;;;10.60;99.90;;;;;;5018700;28;20046;-88
2021/05/25 07:31:09;;;;;;;9.88;3.35;;;10.70;99.90;;;;;;5027823;22;20080;-91
2021/05/25 07:33:47;;;;;;;7.43;3.75;;;10.70;99.90;;;;;;5000877;28;20041;-91
2021/05/25 07:36:21;;;;;;;17.70;3.40;;;10.80;99.90;;;;;;5031280;28;20045;-91
2021/05/25 07:38:55;;;;;;;7.20;2.95;;;11.90;99.90;;;;;;5025279;28;20494;-91
2021/05/25 07:41:37;;;;;;;13.18;3.80;;;11.70;99.90;;;;;;4991576;28;20046;-92
2021/05/25 07:44:05;;;;;;;8.35;3.67;;;11.00;99.90;;;;;;5015317;28;20042;-90
2021/05/25 07:46:35;;;;;;;8.48;4.57;;;11.10;99.90;;;;;;5011713;28;20056;-90
2021/05/25 07:49:09;;;;;;;7.13;2.65;;;11.10;99.90;;;;;;5001079;28;20060;-90
2021/05/25 07:51:57;;;;;;;7.45;2.83;;;11.20;99.90;;;;;;5032201;28;20492;-91
2021/05/25 07:54:31;;;;;;;5.60;3.30;;;11.30;99.90;;;;;;5031085;28;20054;-91
2021/05/25 07:57:01;;;;;;;13.48;5.03;;;11.40;99.90;;;;;;5011597;28;20060;-91
2021/05/25 07:59:32;;;;;;;5.88;2.33;;;11.40;99.90;;;;;;5011421;28;20054;-91
2021/05/25 08:02:02;;;;;;;5.97;2.58;;;11.50;99.90;;;;;;5016008;28;20049;-91
2021/05/25 08:04:31;;;;;;;10.68;2.88;;;11.50;99.90;;;;;;5014826;28;20048;-91
2021/05/25 08:06:59;;;;;;;8.27;3.35;;;11.50;99.90;;;;;;5014984;28;20051;-91
2021/05/25 08:09:28;;;;;;;17.45;4.78;;;11.60;99.90;;;;;;5034404;28;20049;-92
2021/05/25 08:12:01;;;;;;;19.92;3.60;;;11.70;99.90;;;;;;5031791;28;20042;-92
2021/05/25 08:14:37;;;;;;;10.57;3.05;;;11.70;99.90;;;;;;5026993;28;20061;-93
2021/05/25 08:18:03;;;;;;;10.45;2.95;;;11.70;99.90;;;;;;5015548;28;20053;-90
2021/05/25 08:20:16;;;;;;;7.10;2.67;;;11.70;99.90;;;;;;5012143;28;20053;-91
2021/05/25 08:23:10;;;;;;;8.02;2.83;;;11.80;99.90;;;;;;5016964;28;20068;-91
2021/05/25 08:25:42;;;;;;;13.27;3.75;;;11.80;99.90;;;;;;4999303;28;20537;-92
2021/05/25 08:28:16;;;;;;;7.13;2.42;;;11.80;99.90;;;;;;5018811;28;20049;-91
2021/05/25 08:30:49;;;;;;;9.77;3.22;;;11.80;99.90;;;;;;5026869;28;20161;-90
2021/05/25 08:33:20;;;;;;;10.05;3.22;;;11.80;99.90;;;;;;5026177;28;20053;-90
2021/05/25 08:35:54;;;;;;;10.85;3.95;;;11.80;99.90;;;;;;5037034;28;20993;-92
2021/05/25 08:38:28;;;;;;;7.47;2.92;;;11.70;99.90;;;;;;5018362;28;20490;-90
2021/05/25 08:41:02;;;;;;;8.30;2.20;;;12.00;99.90;;;;;;5027921;28;20057;-90
2021/05/25 08:43:55;;;;;;;4.40;2.65;;;11.90;99.90;;;;;;5023518;28;20053;-90
2021/05/25 08:46:33;;;;;;;5.97;2.90;;;11.90;99.90;;;;;;5033264;28;20052;-90
2021/05/25 08:49:11;;;;;;;7.45;2.30;;;12.50;99.90;;;;;;5027341;28;20053;-91
2021/05/25 08:51:55;;;;;;;5.03;2.93;;;12.80;99.90;;;;;;5039181;28;20057;-90
2021/05/25 08:54:52;;;;;;;10.00;2.25;;;12.10;99.90;;;;;;5029725;28;20045;-91
2021/05/25 08:57:49;;;;;;;8.55;2.70;;;12.10;99.90;;;;;;5021848;28;20045;-90
2021/05/25 09:00:20;;;;;;;11.57;3.13;;;12.00;99.90;;;;;;5025066;28;20053;-92
2021/05/25 09:02:56;;;;;;;7.90;2.80;;;12.30;99.90;;;;;;5040987;28;20065;-92
2021/05/25 09:05:27;;;;;;;4.70;2.38;;;12.40;99.90;;;;;;5018738;28;20049;-91
2021/05/25 09:07:58;;;;;;;16.45;3.17;;;12.50;99.90;;;;;;5025912;28;20060;-91
2021/05/25 09:10:40;;;;;;;7.75;2.45;;;12.60;99.90;;;;;;5025482;28;20052;-92
2021/05/25 09:13:24;;;;;;;12.73;4.22;;;12.50;99.90;;;;;;5005281;28;20411;-92
2021/05/25 09:15:58;;;;;;;5.80;1.92;;;12.70;99.90;;;;;;5004662;28;20058;-92
2021/05/25 09:18:33;;;;;;;5.35;2.05;;;12.80;99.90;;;;;;5017124;28;20049;-91
2021/05/25 09:21:04;;;;;;;6.45;2.13;;;12.90;99.90;;;;;;5006278;28;20053;-91
2021/05/25 09:23:38;;;;;;;8.43;2.85;;;12.00;99.90;;;;;;5033266;28;20064;-91
2021/05/25 09:26:12;;;;;;;20.00;3.70;;;13.00;99.90;;;;;;5022481;28;20037;-90
2021/05/25 09:29:02;;;;;;;8.85;2.88;;;13.10;99.90;;;;;;5020418;28;20049;-91
2021/05/25 09:31:43;;;;;;;6.53;2.30;;;13.20;99.90;;;;;;5016025;28;20059;-89
2021/05/25 09:34:17;;;;;;;7.22;2.05;;;13.30;99.90;;;;;;5019339;28;20437;-91
2021/05/25 09:37:06;;;;;;;9.85;3.40;;;13.40;99.90;;;;;;5018013;28;20503;-90
2021/05/25 09:39:46;;;;;;;10.38;3.65;;;13.40;99.90;;;;;;5019057;28;20049;-88
2021/05/25 09:42:14;;;;;;;8.90;2.00;;;13.50;99.90;;;;;;5019377;28;20060;-91
2021/05/25 09:45:09;;;;;;;5.60;1.75;;;13.50;99.90;;;;;;5020781;28;20064;-90
2021/05/25 09:47:56;;;;;;;4.03;2.10;;;13.60;99.90;;;;;;5013495;28;20066;-92
2021/05/25 09:50:25;;;;;;;8.30;2.00;;;13.60;99.90;;;;;;5037827;28;20060;-91
2021/05/25 09:53:30;;;;;;;5.97;2.75;;;13.60;99.90;;;;;;5016838;28;20404;-91
2021/05/25 09:56:01;;;;;;;6.68;2.25;;;13.50;99.90;;;;;;5018366;28;20060;-90
2021/05/25 09:58:32;;;;;;;8.65;3.10;;;13.40;99.90;;;;;;5050880;28;20060;-90
2021/05/25 10:01:03;;;;;;;5.07;1.92;;;13.30;99.90;;;;;;5033346;28;20060;-90
2021/05/25 10:03:50;;;;;;;7.40;3.25;;;13.20;99.90;;;;;;5031479;28;20053;-91
2021/05/25 10:06:19;;;;;;;5.80;2.58;;;12.60;99.90;;;;;;5014732;28;20417;-92
2021/05/25 10:08:49;;;;;;;7.55;2.08;;;13.00;99.90;;;;;;5018957;28;20068;-91
2021/05/25 10:11:18;;;;;;;8.00;3.20;;;13.00;99.90;;;;;;5004944;28;20045;-92
2021/05/25 10:13:50;;;;;;;6.30;2.13;;;12.90;99.90;;;;;;5017118;28;20543;-93
2021/05/25 10:16:28;;;;;;;8.57;2.00;;;12.90;99.90;;;;;;5020270;28;20038;-92
2021/05/25 10:19:26;;;;;;;6.28;2.33;;;12.80;99.90;;;;;;5034560;28;20057;-91
2021/05/25 10:22:01;;;;;;;7.68;1.90;;;12.70;99.90;;;;;;5019022;28;20053;-92
2021/05/25 10:24:35;;;;;;;6.38;1.85;;;12.70;99.90;;;;;;5016708;28;20408;-92
2021/05/25 10:27:05;;;;;;;11.82;3.53;;;13.20;99.90;;;;;;5020037;28;20049;-91
2021/05/25 10:29:35;;;;;;;6.47;2.33;;;12.50;99.90;;;;;;5021257;28;20049;-91
2021/05/25 10:32:19;;;;;;;14.45;2.13;;;12.50;99.90;;;;;;5012013;28;20092;-92
2021/05/25 10:34:53;;;;;;;5.47;2.30;;;12.50;99.90;;;;;;5017087;28;20604;-91
2021/05/25 10:37:25;;;;;;;10.63;2.40;;;12.40;99.90;;;;;;5023477;28;20033;-91
2021/05/25 10:39:55;;;;;;;6.53;2.95;;;12.40;99.90;;;;;;5032227;28;20056;-92
2021/05/25 10:42:27;;;;;;;7.10;1.95;;;12.40;99.90;;;;;;5019735;28;20061;-90
2021/05/25 10:45:19;;;;;;;9.35;2.00;;;12.90;99.90;;;;;;5004670;28;20046;-93
2021/05/25 10:48:05;;;;;;;5.93;2.15;;;12.50;99.90;;;;;;5004037;28;20052;-91
2021/05/25 10:50:44;;;;;;;11.80;2.47;;;12.50;99.90;;;;;;5016247;28;20049;-90
2021/05/25 10:53:15;;;;;;;8.60;2.40;;;12.70;99.90;;;;;;5003291;28;20546;-90
2021/05/25 10:55:44;;;;;;;11.07;2.45;;;12.80;99.90;;;;;;5014944;28;20046;-91
2021/05/25 10:58:18;;;;;;;4.97;3.67;;;12.90;99.90;;;;;;5015990;28;20049;-91
2021/05/25 11:00:48;;;;;;;12.00;2.63;;;13.00;99.90;;;;;;5015595;28;20382;-91
2021/05/25 11:03:34;;;;;;;5.53;2.03;;;13.10;99.90;;;;;;5018515;28;20045;-90
2021/05/25 11:06:06;;;;;;;9.00;1.77;;;13.20;99.90;;;;;;5019823;28;20048;-92
2021/05/25 11:08:39;;;;;;;7.07;2.00;;;13.20;99.90;;;;;;5005589;28;20057;-92
2021/05/25 11:11:12;;;;;;;7.15;2.30;;;13.20;99.90;;;;;;5020340;28;20044;-92
2021/05/25 11:13:52;;;;;;;8.63;2.13;;;13.20;99.90;;;;;;5003107;28;20057;-89
2021/05/25 11:16:34;;;;;;;6.32;2.13;;;13.20;99.90;;;;;;5017625;28;20053;-90
2021/05/25 11:19:09;;;;;;;5.47;2.05;;;13.00;99.90;;;;;;5018695;28;20068;-92
2021/05/25 11:24:46;;;;;;;12.32;2.35;;;12.20;99.90;;;;;;5027385;28;19935;-93
2021/05/25 11:27:44;;;;;;;7.57;2.13;;;13.10;99.90;;;;;;5016147;28;20041;-91
2021/05/25 11:30:28;;;;;;;3.35;1.98;;;12.80;99.90;;;;;;5030336;28;20046;-92
2021/05/25 11:33:03;;;;;;;8.02;3.03;;;12.80;99.90;;;;;;5039544;28;20063;-91
2021/05/25 11:35:37;;;;;;;10.18;2.70;;;12.70;99.90;;;;;;5022604;28;20062;-92
2021/05/25 11:38:11;;;;;;;6.95;2.17;;;12.70;99.90;;;;;;5008459;28;20501;-92
2021/05/25 11:40:43;;;;;;;10.18;3.58;;;12.90;99.90;;;;;;5036292;28;20053;-92
2021/05/25 11:43:13;;;;;;;9.43;2.20;;;12.80;99.90;;;;;;5013329;28;20052;-92
2021/05/25 11:45:44;;;;;;;7.40;2.67;;;12.90;99.90;;;;;;5029427;28;20048;-91
2021/05/25 11:48:23;;;;;;;9.18;2.53;;;13.00;99.90;;;;;;5031199;28;20053;-92
2021/05/25 11:50:51;;;;;;;5.20;2.25;;;13.10;99.90;;;;;;5023930;28;20053;-92
2021/05/25 11:53:24;;;;;;;3.63;2.45;;;13.20;99.90;;;;;;5028601;28;20053;-92
2021/05/25 11:56:00;;;;;;;11.10;2.70;;;13.30;99.90;;;;;;5012513;28;20049;-91
2021/05/25 11:58:28;;;;;;;8.85;2.85;;;13.50;99.90;;;;;;5010186;28;20058;-91
2021/05/25 12:00:56;;;;;;;14.02;2.85;;;13.80;99.90;;;;;;5011054;28;20057;-90
2021/05/25 12:03:26;;;;;;;8.70;3.03;;;13.50;99.90;;;;;;5009361;28;20049;-91
2021/05/25 12:05:58;;;;;;;6.68;2.35;;;13.60;99.90;;;;;;5032542;28;20057;-91
2021/05/25 12:08:26;;;;;;;10.73;2.88;;;13.70;99.90;;;;;;5013275;28;20044;-92
2021/05/25 12:11:01;;;;;;;5.25;1.95;;;13.70;99.90;;;;;;5046354;28;20064;-92
2021/05/25 12:13:29;;;;;;;9.55;2.83;;;13.70;99.90;;;;;;5013339;28;20049;-87
2021/05/25 12:15:58;;;;;;;5.80;2.03;;;13.70;99.90;;;;;;5021320;28;20077;-88
2021/05/25 12:18:38;;;;;;;8.32;2.85;;;13.70;99.90;;;;;;5025687;28;20045;-88
2021/05/25 12:21:07;;;;;;;8.55;2.15;;;13.60;99.90;;;;;;5012746;28;20065;-87
2021/05/25 12:23:35;;;;;;;13.15;2.72;;;13.60;99.90;;;;;;5025283;28;20540;-88
2021/05/25 12:26:24;;;;;;;22.98;2.70;;;13.50;99.90;;;;;;5025572;28;20049;-87
2021/05/25 12:28:55;;;;;;;5.77;2.30;;;13.40;99.90;;;;;;5013896;28;20056;-87
2021/05/25 12:31:29;;;;;;;5.95;2.53;;;13.40;99.90;;;;;;5014765;28;20049;-88
2021/05/25 12:33:59;;;;;;;12.23;5.07;;;13.40;99.90;;;;;;4996362;28;20046;-87
2021/05/25 12:36:40;;;;;;;10.23;3.03;;;13.40;99.90;;;;;;4989524;28;20056;-88
2021/05/25 12:39:15;;;;;;;11.13;4.93;;;13.60;99.90;;;;;;5027290;28;20516;-88
2021/05/25 12:41:46;;;;;;;11.63;2.80;;;13.80;99.90;;;;;;5026908;28;20049;-88
2021/05/25 12:44:20;;;;;;;8.20;2.17;;;14.00;99.90;;;;;;5027421;28;20041;-89
2021/05/25 12:47:05;;;;;;;6.70;2.00;;;14.20;99.90;;;;;;5011813;28;20137;-90
2021/05/25 12:49:45;;;;;;;11.02;2.30;;;14.50;99.90;;;;;;5007578;28;20054;-90
2021/05/25 12:52:33;;;;;;;9.18;2.65;;;14.80;99.90;;;;;;5006552;28;20042;-90
2021/05/25 12:55:12;;;;;;;11.65;2.05;;;15.00;99.90;;;;;;5011908;28;20472;-90
2021/05/25 12:57:55;;;;;;;2.97;2.17;;;15.30;99.90;;;;;;5028282;28;20053;-89
2021/05/25 13:00:37;;;;;;;4.13;1.80;;;14.30;99.90;;;;;;5030635;28;20311;-89
2021/05/25 13:03:23;;;;;;;5.68;1.70;;;15.70;99.90;;;;;;5013256;28;20057;-90
2021/05/25 13:09:12;;;;;;;12.20;4.82;;;15.20;99.90;;;;;;5027743;28;20057;-89
2021/05/25 13:12:00;;;;;;;12.93;4.63;;;15.40;99.90;;;;;;5031645;28;20708;-90
2021/05/25 13:14:32;;;;;;;4.03;2.03;;;15.20;99.90;;;;;;5014586;28;20137;-89
2021/05/25 13:17:12;;;;;;;7.82;3.90;;;15.10;99.90;;;;;;5015899;28;20504;-90
2021/05/25 13:19:51;;;;;;;5.45;2.08;;;15.00;99.90;;;;;;5015974;28;20056;-89
2021/05/25 13:22:26;;;;;;;9.52;3.67;;;15.00;99.90;;;;;;5043038;23;20046;-90
2021/05/25 13:25:03;;;;;;;17.33;2.85;;;15.10;99.90;;;;;;5015140;28;20045;-90
2021/05/25 13:27:35;;;;;;;11.05;2.63;;;15.40;99.90;;;;;;4999793;28;20064;-88
2021/05/25 13:30:10;;;;;;;7.72;2.08;;;15.60;99.90;;;;;;5025279;28;20145;-92
2021/05/25 13:32:38;;;;;;;6.78;1.70;;;15.90;99.90;;;;;;4991982;28;20046;-93